Turner Valley, Canada
Current Conditions -  °F | °C
As of 9:00 PM on Monday 20 Oct 2014 (Local Time) from CYBW Reporting Station
Clear Clear  
Wind Chill: 45°   Ceiling: Unl
Heat Index: 48°   Visibility: 9mi
Dew Point: 32°   Wind: 8mph
Humidity: 54%   Direction: 180°S
Pressure: 29.62"   Gusts: NA
Location:  50.68°N, 114.27°W
Report Text: CYBW 210300Z AUTO 18007KT 170V240 9SM CLR 09/M00 A2962 RMK SLP047 DENSITY ALT 4400FT
Loading
Personal Weather Stations






























Interactive Weather Map
Tropical Storm Tracking
New forecast layout! Learn more

10-Day Weather Forecast

Advertisements
Track Severe Weather on mobile